Centennial, CO

10:57 PM MST on November 13, 2019 (GMT -0700)
Centennial | | Change Station

Elev 5883 ft 39.57 °N, 104.85 °W | Updated 4 minutes ago

Mostly Cloudy
Mostly Cloudy
34 °F
Feels Like 26 °F
N
12
Wind Variable Wind from SSE

Today
High -- | Low -- °F
--% Chance of Precip.
Yesterday
High -- | Low -- °F
Precip. -- in
Pressure 30.17 in
Visibility 10.0 miles
Clouds Mostly Cloudy 9500 ft
Windchill 26 °F
Dew Point 26 °F
Humidity 73%
Rainfall 0.00 in
Snow Depth Not available.
6:41 AM 4:45 PM
Full, 97% visible
METAR KAPA 140553Z 16010KT 10SM BKN095 01/M03 A3018 RMK AO2 SLP215 T00111033 10078 21011 51008
Pressure 30.17 in
Visibility 10.0 miles
Clouds Mostly Cloudy 9500 ft
Windchill 26 °F
Dew Point 26 °F
Humidity 73%
Rainfall 0.00 in
Snow Depth Not available.
6:41 AM 4:45 PM
Full, 97% visible
METAR KAPA 140553Z 16010KT 10SM BKN095 01/M03 A3018 RMK AO2 SLP215 T00111033 10078 21011 51008

Get Severe Weather Alerts

Thanks for signing up!

Be on the lookout for a verification email in your inbox.

You'll start receiving the daily forecast at 6 AM.

×

10-Day Weather Forecast

Almanac

Astronomy

Nov. 13, 2019 Rise Set
Actual Time
Civil Twilight
Nautical Twilight
Astronomical Twilight
Moon
Length of Visible Light
Length of Day
Tomorrow will be .
, % of the Moon is Illuminated

Today's Extremes

State Highs State Lows

Community

WunderPhotos

Category 6

Welcome to Category 6. This is the collective home for Weather Underground's featured writeups by Dr. Jeff Masters (right), Bob Henson (left), Chris Burt, and other regular contributors.

Nearby

Air Quality

  Air Quality AQ Index Pollutant
Not available.

Snow Depth

Station Depth Elevation

Earthquake Activity

City Distance Mag. Time & Date
Minimum magnitude displayed is 2.5.

Coastal Water Temperatures

Place Temperature

Stations

Nearby Weather Stations

Station Location Temp. Windchill Dew Point Humidity Wind Precip. Elev Updated Type
                   

Watches & Warnings

There are currently no watches in effect.